Time;durP1;ratioP1;P1;durP2;ratioP2;P2;SDS_P1;SDS_P2;PMS_P1;PMS_P2;Temp;Humidity;BMP_temperature;BMP_pressure;BME280_temperature;BME280_humidity;BME280_pressure;Samples;Min_cycle;Max_cycle;Signal;HPM_P1;HPM_P2
2022/07/12 00:00:41;;;;;;;0.00;0.00;;;;;;;;;;5066655;28;20024;-64
2022/07/12 00:03:06;;;;;;;0.00;0.00;;;;;;;;;;5066288;28;20433;-64
2022/07/12 00:05:31;;;;;;;0.00;0.00;;;;;;;;;;5067764;28;20055;-64
2022/07/12 00:07:57;;;;;;;0.00;0.00;;;;;;;;;;5068492;28;20039;-64
2022/07/12 00:10:22;;;;;;;0.00;0.00;;;;;;;;;;5073063;28;20028;-63
2022/07/12 00:12:47;;;;;;;0.00;0.00;;;;;;;;;;5067232;28;20033;-63
2022/07/12 00:15:13;;;;;;;0.00;0.00;;;;;;;;;;5063552;28;20103;-64
2022/07/12 00:17:39;;;;;;;0.00;0.00;;;;;;;;;;5066612;28;20047;-64
2022/07/12 00:20:04;;;;;;;0.00;0.00;;;;;;;;;;5066339;28;20037;-63
2022/07/12 00:22:30;;;;;;;0.00;0.00;;;;;;;;;;5066877;28;20052;-63
2022/07/12 00:24:55;;;;;;;0.00;0.00;;;;;;;;;;5066719;28;20031;-65
2022/07/12 00:27:20;;;;;;;0.00;0.00;;;;;;;;;;5067209;28;20047;-64
2022/07/12 00:29:45;;;;;;;0.00;0.00;;;;;;;;;;5067616;28;20021;-64
2022/07/12 00:32:11;;;;;;;0.00;0.00;;;;;;;;;;5067967;28;20033;-67
2022/07/12 00:34:36;;;;;;;0.00;0.00;;;;;;;;;;5069325;28;20033;-66
2022/07/12 00:37:01;;;;;;;0.00;0.00;;;;;;;;;;5067822;28;20791;-66
2022/07/12 00:39:26;;;;;;;0.00;0.00;;;;;;;;;;5067012;28;20851;-66
2022/07/12 00:41:51;;;;;;;0.00;0.00;;;;;;;;;;5066587;28;20052;-66
2022/07/12 00:44:17;;;;;;;0.00;0.00;;;;;;;;;;5049411;28;20039;-66
2022/07/12 00:46:42;;;;;;;0.00;0.00;;;;;;;;;;5066866;28;20593;-66
2022/07/12 00:49:08;;;;;;;0.00;0.00;;;;;;;;;;5066336;28;20021;-63
2022/07/12 00:51:33;;;;;;;0.00;0.00;;;;;;;;;;5066716;28;20031;-63
2022/07/12 00:53:59;;;;;;;0.00;0.00;;;;;;;;;;5066921;28;20017;-65
2022/07/12 00:56:24;;;;;;;0.00;0.00;;;;;;;;;;5066458;28;20037;-64
2022/07/12 00:58:50;;;;;;;0.00;0.00;;;;;;;;;;5067471;28;20060;-65
2022/07/12 01:01:15;;;;;;;0.20;0.20;;;;;;;;;;5065108;28;20497;-64
2022/07/12 01:03:41;;;;;;;0.00;0.00;;;;;;;;;;5066862;28;20529;-64
2022/07/12 01:06:07;;;;;;;0.00;0.00;;;;;;;;;;5066723;28;20070;-63
2022/07/12 01:08:32;;;;;;;0.00;0.00;;;;;;;;;;5067905;28;20078;-64
2022/07/12 01:10:58;;;;;;;0.00;0.00;;;;;;;;;;5065960;28;20024;-64
2022/07/12 01:13:23;;;;;;;0.00;0.00;;;;;;;;;;5067254;28;20048;-64
2022/07/12 01:15:49;;;;;;;0.00;0.00;;;;;;;;;;5066085;28;20033;-63
2022/07/12 01:18:15;;;;;;;0.00;0.00;;;;;;;;;;5067152;28;20424;-63
2022/07/12 01:20:40;;;;;;;0.00;0.00;;;;;;;;;;5069218;28;20460;-64
2022/07/12 01:23:06;;;;;;;0.00;0.00;;;;;;;;;;5067633;28;20025;-63
2022/07/12 01:25:31;;;;;;;0.00;0.00;;;;;;;;;;5066833;28;20031;-64
2022/07/12 01:27:57;;;;;;;0.00;0.00;;;;;;;;;;5067284;28;20107;-63
2022/07/12 01:30:22;;;;;;;0.00;0.00;;;;;;;;;;5068071;28;20054;-64
2022/07/12 01:32:47;;;;;;;0.00;0.00;;;;;;;;;;5071285;28;20069;-63
2022/07/12 01:35:13;;;;;;;0.00;0.00;;;;;;;;;;5067300;28;20025;-63
2022/07/12 01:37:40;;;;;;;0.00;0.00;;;;;;;;;;5064330;28;20206;-64
2022/07/12 01:40:07;;;;;;;0.00;0.00;;;;;;;;;;5066980;28;20099;-64
2022/07/12 01:42:32;;;;;;;0.93;0.93;;;;;;;;;;5064376;28;20029;-64
2022/07/12 01:44:58;;;;;;;0.00;0.00;;;;;;;;;;5067816;28;20024;-64
2022/07/12 01:47:24;;;;;;;0.00;0.00;;;;;;;;;;5069436;28;20374;-65
2022/07/12 01:49:49;;;;;;;0.00;0.00;;;;;;;;;;5066998;28;20416;-64
2022/07/12 01:52:15;;;;;;;0.00;0.00;;;;;;;;;;5066419;28;20021;-64
2022/07/12 01:54:40;;;;;;;0.00;0.00;;;;;;;;;;5066602;28;20093;-64
2022/07/12 01:57:06;;;;;;;0.00;0.00;;;;;;;;;;5066501;28;20024;-64
2022/07/12 01:59:31;;;;;;;0.00;0.00;;;;;;;;;;5067293;28;20036;-64
2022/07/12 02:01:57;;;;;;;0.00;0.00;;;;;;;;;;5065463;28;20024;-64
2022/07/12 02:04:23;;;;;;;0.00;0.00;;;;;;;;;;5066857;28;20020;-63
2022/07/12 02:06:48;;;;;;;0.00;0.00;;;;;;;;;;5067092;28;20021;-64
2022/07/12 02:09:14;;;;;;;0.00;0.00;;;;;;;;;;5068107;28;20091;-64
2022/07/12 02:11:39;;;;;;;0.00;0.00;;;;;;;;;;5064194;28;20044;-64
2022/07/12 02:14:05;;;;;;;0.00;0.00;;;;;;;;;;5072793;28;20408;-64
2022/07/12 02:16:31;;;;;;;0.00;0.00;;;;;;;;;;5065893;28;20478;-64
2022/07/12 02:18:56;;;;;;;0.00;0.00;;;;;;;;;;5066901;28;20095;-64
2022/07/12 02:21:21;;;;;;;0.00;0.00;;;;;;;;;;5065806;28;20373;-64
2022/07/12 02:23:46;;;;;;;0.00;0.00;;;;;;;;;;5066365;28;20485;-64
2022/07/12 02:26:12;;;;;;;0.00;0.00;;;;;;;;;;5067214;28;20499;-65
2022/07/12 02:28:37;;;;;;;0.00;0.00;;;;;;;;;;5065457;28;20031;-65
2022/07/12 02:31:02;;;;;;;0.00;0.00;;;;;;;;;;5067363;28;20033;-65
2022/07/12 02:33:27;;;;;;;0.00;0.00;;;;;;;;;;5065295;28;20029;-65
2022/07/12 02:35:53;;;;;;;0.00;0.00;;;;;;;;;;5066466;28;20083;-65
2022/07/12 02:38:20;;;;;;;0.00;0.00;;;;;;;;;;5065722;28;20016;-65
2022/07/12 02:40:54;;;;;;;0.00;0.00;;;;;;;;;;5067075;28;20321;-64
2022/07/12 02:43:20;;;;;;;0.00;0.00;;;;;;;;;;5065349;28;20022;-64
2022/07/12 02:45:45;;;;;;;0.00;0.00;;;;;;;;;;5068340;28;20032;-64
2022/07/12 02:48:12;;;;;;;0.00;0.00;;;;;;;;;;5065171;28;20795;-64
2022/07/12 02:50:37;;;;;;;0.00;0.00;;;;;;;;;;5065350;28;20109;-64
2022/07/12 02:53:03;;;;;;;0.00;0.00;;;;;;;;;;5064982;28;20109;-64
2022/07/12 02:55:28;;;;;;;0.00;0.00;;;;;;;;;;5066283;28;20679;-65
2022/07/12 02:57:53;;;;;;;0.00;0.00;;;;;;;;;;5067401;28;20013;-65
2022/07/12 03:00:19;;;;;;;0.00;0.00;;;;;;;;;;5072983;28;20038;-65
2022/07/12 03:02:44;;;;;;;0.15;0.15;;;;;;;;;;5066833;28;20071;-65
2022/07/12 03:05:10;;;;;;;0.00;0.00;;;;;;;;;;5069903;28;20427;-65
2022/07/12 03:07:35;;;;;;;0.00;0.00;;;;;;;;;;5047734;28;20039;-66
2022/07/12 03:10:00;;;;;;;0.00;0.00;;;;;;;;;;5070205;28;20032;-66
2022/07/12 03:12:25;;;;;;;0.63;0.20;;;;;;;;;;5069101;28;20107;-65
2022/07/12 03:14:51;;;;;;;0.00;0.00;;;;;;;;;;5070048;28;20021;-66
2022/07/12 03:17:16;;;;;;;0.00;0.00;;;;;;;;;;5069168;28;20779;-65
2022/07/12 03:19:41;;;;;;;0.00;0.00;;;;;;;;;;5069087;28;20517;-64
2022/07/12 03:22:06;;;;;;;0.00;0.00;;;;;;;;;;5068958;28;20081;-63
2022/07/12 03:24:31;;;;;;;0.00;0.00;;;;;;;;;;5068975;28;20085;-63
2022/07/12 03:26:56;;;;;;;0.00;0.00;;;;;;;;;;5068860;28;20024;-63
2022/07/12 03:29:22;;;;;;;0.00;0.00;;;;;;;;;;5069011;28;20414;-63
2022/07/12 03:31:47;;;;;;;0.00;0.00;;;;;;;;;;5069798;28;20381;-63
2022/07/12 03:34:12;;;;;;;0.00;0.00;;;;;;;;;;5068841;28;20460;-62
2022/07/12 03:36:37;;;;;;;0.00;0.00;;;;;;;;;;5068000;28;20028;-62
2022/07/12 03:39:03;;;;;;;0.00;0.00;;;;;;;;;;5068518;28;20029;-62
2022/07/12 03:41:28;;;;;;;0.00;0.00;;;;;;;;;;5069772;28;20024;-63
2022/07/12 03:43:53;;;;;;;0.00;0.00;;;;;;;;;;5068187;28;20048;-63
2022/07/12 03:46:18;;;;;;;0.00;0.00;;;;;;;;;;5070086;28;20020;-63
2022/07/12 03:48:43;;;;;;;0.00;0.00;;;;;;;;;;5067592;28;20442;-62
2022/07/12 03:51:09;;;;;;;0.00;0.00;;;;;;;;;;5069892;28;20370;-63
2022/07/12 03:53:34;;;;;;;0.00;0.00;;;;;;;;;;5067133;28;20521;-63
2022/07/12 03:55:59;;;;;;;0.00;0.00;;;;;;;;;;5069199;28;20094;-63
2022/07/12 03:58:24;;;;;;;0.00;0.00;;;;;;;;;;5067818;28;20692;-62
2022/07/12 04:00:49;;;;;;;0.00;0.00;;;;;;;;;;5069229;28;20023;-62
2022/07/12 04:03:15;;;;;;;0.00;0.00;;;;;;;;;;5066360;28;20075;-61
2022/07/12 04:05:40;;;;;;;0.00;0.00;;;;;;;;;;5067114;28;20029;-62
2022/07/12 04:08:05;;;;;;;0.00;0.00;;;;;;;;;;5068630;28;20263;-62
2022/07/12 04:10:31;;;;;;;0.00;0.00;;;;;;;;;;5068505;28;20028;-61
2022/07/12 04:12:56;;;;;;;0.00;0.00;;;;;;;;;;5067929;28;20043;-61
2022/07/12 04:15:22;;;;;;;0.00;0.00;;;;;;;;;;5068537;28;20024;-62
2022/07/12 04:17:47;;;;;;;0.00;0.00;;;;;;;;;;5069386;28;20013;-63
2022/07/12 04:20:12;;;;;;;0.00;0.00;;;;;;;;;;5067474;28;20052;-65
2022/07/12 04:22:38;;;;;;;0.00;0.00;;;;;;;;;;5068078;28;20458;-65
2022/07/12 04:25:04;;;;;;;0.00;0.00;;;;;;;;;;5067663;28;20037;-66
2022/07/12 04:27:29;;;;;;;0.00;0.00;;;;;;;;;;5068094;28;20036;-66
2022/07/12 04:29:54;;;;;;;0.00;0.00;;;;;;;;;;5066400;28;20028;-66
2022/07/12 04:32:19;;;;;;;0.00;0.00;;;;;;;;;;5069988;28;20047;-67
2022/07/12 04:34:44;;;;;;;0.00;0.00;;;;;;;;;;5068162;28;20024;-67
2022/07/12 04:37:10;;;;;;;0.00;0.00;;;;;;;;;;5068746;28;20524;-67
2022/07/12 04:39:35;;;;;;;0.00;0.00;;;;;;;;;;5064760;28;20366;-65
2022/07/12 04:42:00;;;;;;;0.00;0.00;;;;;;;;;;5069563;28;20097;-66
2022/07/12 04:44:26;;;;;;;0.00;0.00;;;;;;;;;;5068072;28;20123;-66
2022/07/12 04:46:51;;;;;;;0.00;0.00;;;;;;;;;;5052213;28;20035;-66
2022/07/12 04:49:16;;;;;;;0.00;0.00;;;;;;;;;;5066808;28;20379;-64
2022/07/12 04:51:41;;;;;;;0.00;0.00;;;;;;;;;;5067175;28;20033;-64
2022/07/12 04:54:07;;;;;;;0.00;0.00;;;;;;;;;;5071331;28;20461;-64
2022/07/12 04:56:33;;;;;;;0.00;0.00;;;;;;;;;;5066339;28;20048;-65
2022/07/12 04:58:58;;;;;;;0.00;0.00;;;;;;;;;;5067586;28;20397;-67
2022/07/12 05:01:23;;;;;;;0.20;0.20;;;;;;;;;;5068349;28;20345;-66
2022/07/12 05:03:49;;;;;;;0.00;0.00;;;;;;;;;;5065404;28;20071;-66
2022/07/12 05:06:14;;;;;;;0.00;0.00;;;;;;;;;;5050309;28;20362;-66
2022/07/12 05:08:39;;;;;;;0.00;0.00;;;;;;;;;;5067521;28;20031;-66
2022/07/12 05:11:04;;;;;;;0.00;0.00;;;;;;;;;;5067034;28;20115;-67
2022/07/12 05:13:30;;;;;;;0.00;0.00;;;;;;;;;;5066822;28;20092;-67
2022/07/12 05:15:55;;;;;;;0.00;0.00;;;;;;;;;;5066705;28;20028;-67
2022/07/12 05:18:20;;;;;;;0.00;0.00;;;;;;;;;;5072519;28;20533;-67
2022/07/12 05:20:45;;;;;;;0.00;0.00;;;;;;;;;;5066013;28;20596;-66
2022/07/12 05:23:10;;;;;;;0.05;0.00;;;;;;;;;;5069516;28;20111;-66
2022/07/12 05:25:36;;;;;;;0.00;0.00;;;;;;;;;;5065581;28;20480;-67
2022/07/12 05:28:01;;;;;;;0.00;0.00;;;;;;;;;;5068311;28;20405;-64
2022/07/12 05:30:27;;;;;;;0.00;0.00;;;;;;;;;;5065132;28;20132;-64
2022/07/12 05:32:52;;;;;;;0.00;0.00;;;;;;;;;;5066570;28;20025;-65
2022/07/12 05:35:20;;;;;;;0.00;0.00;;;;;;;;;;5065250;28;20473;-64
2022/07/12 05:37:45;;;;;;;0.00;0.00;;;;;;;;;;5067238;28;20370;-63
2022/07/12 05:40:11;;;;;;;0.00;0.00;;;;;;;;;;5066771;28;20024;-64
2022/07/12 05:42:36;;;;;;;0.00;0.00;;;;;;;;;;5067170;28;20036;-64
2022/07/12 05:45:01;;;;;;;0.00;0.00;;;;;;;;;;5066543;28;20090;-64
2022/07/12 05:47:26;;;;;;;0.00;0.00;;;;;;;;;;5066236;28;20156;-64
2022/07/12 05:49:52;;;;;;;0.05;0.05;;;;;;;;;;5065874;28;20109;-63
2022/07/12 05:55:01;;;;;;;0.00;0.00;;;;;;;;;;5065963;28;20055;-64
2022/07/12 05:57:26;;;;;;;0.00;0.00;;;;;;;;;;5066228;28;20029;-64
2022/07/12 05:59:52;;;;;;;0.00;0.00;;;;;;;;;;5066622;28;20025;-64
2022/07/12 06:02:17;;;;;;;0.00;0.00;;;;;;;;;;5065517;28;20473;-64
2022/07/12 06:04:42;;;;;;;0.00;0.00;;;;;;;;;;5066108;28;20282;-65
2022/07/12 06:07:07;;;;;;;0.08;0.08;;;;;;;;;;5065754;28;20274;-64
2022/07/12 06:09:32;;;;;;;0.00;0.00;;;;;;;;;;5065998;28;20020;-65
2022/07/12 06:11:58;;;;;;;0.10;0.10;;;;;;;;;;5065666;28;20108;-64
2022/07/12 06:14:23;;;;;;;0.40;0.13;;;;;;;;;;5067799;28;20539;-65
2022/07/12 06:16:48;;;;;;;0.10;0.10;;;;;;;;;;5065203;28;20338;-64
2022/07/12 06:19:13;;;;;;;0.00;0.00;;;;;;;;;;5067472;28;20019;-64
2022/07/12 06:21:39;;;;;;;0.00;0.00;;;;;;;;;;5064971;28;20016;-64
2022/07/12 06:24:04;;;;;;;0.00;0.00;;;;;;;;;;5067066;28;20150;-64
2022/07/12 06:26:29;;;;;;;0.00;0.00;;;;;;;;;;5067103;28;20029;-64
2022/07/12 06:28:54;;;;;;;0.10;0.10;;;;;;;;;;5066351;28;20426;-64
2022/07/12 06:31:29;;;;;;;0.00;0.00;;;;;;;;;;5066227;28;20078;-64
2022/07/12 06:33:54;;;;;;;0.00;0.00;;;;;;;;;;5066292;28;20261;-64
2022/07/12 06:36:19;;;;;;;0.00;0.00;;;;;;;;;;5069062;28;20041;-64
2022/07/12 06:38:44;;;;;;;0.03;0.03;;;;;;;;;;5070073;28;20732;-64
2022/07/12 06:41:09;;;;;;;0.00;0.00;;;;;;;;;;5068838;28;20103;-65
2022/07/12 06:43:35;;;;;;;0.00;0.00;;;;;;;;;;5070094;28;20342;-64
2022/07/12 06:46:00;;;;;;;0.00;0.00;;;;;;;;;;5069183;28;20282;-64
2022/07/12 06:48:25;;;;;;;0.20;0.20;;;;;;;;;;5074901;28;20025;-64
2022/07/12 06:50:50;;;;;;;0.10;0.10;;;;;;;;;;5069429;28;20251;-64
2022/07/12 06:53:15;;;;;;;0.00;0.00;;;;;;;;;;5069426;28;20329;-64
2022/07/12 06:55:44;;;;;;;0.00;0.00;;;;;;;;;;5069182;28;20087;-64
2022/07/12 06:58:09;;;;;;;0.00;0.00;;;;;;;;;;5067658;28;20276;-64
2022/07/12 07:00:34;;;;;;;0.17;0.17;;;;;;;;;;5052708;28;20086;-64
2022/07/12 07:03:00;;;;;;;0.00;0.00;;;;;;;;;;5067972;28;20762;-65
2022/07/12 07:05:25;;;;;;;0.00;0.00;;;;;;;;;;5072765;28;20059;-66
2022/07/12 07:07:51;;;;;;;0.70;0.00;;;;;;;;;;5067639;28;20025;-64
2022/07/12 07:10:16;;;;;;;0.20;0.20;;;;;;;;;;5070047;28;20032;-64
2022/07/12 07:12:41;;;;;;;0.00;0.00;;;;;;;;;;5069064;28;20533;-65
2022/07/12 07:15:07;;;;;;;0.00;0.00;;;;;;;;;;5069915;28;20382;-63
2022/07/12 07:17:32;;;;;;;0.00;0.00;;;;;;;;;;5072178;28;20103;-63
2022/07/12 07:19:57;;;;;;;0.10;0.10;;;;;;;;;;5071250;28;20024;-62
2022/07/12 07:22:22;;;;;;;0.03;0.03;;;;;;;;;;5068933;28;20013;-62
2022/07/12 07:24:48;;;;;;;0.00;0.00;;;;;;;;;;5068699;28;20025;-63
2022/07/12 07:27:13;;;;;;;0.00;0.00;;;;;;;;;;5067338;28;20040;-63
2022/07/12 07:32:22;;;;;;;0.00;0.00;;;;;;;;;;5069893;28;20051;-63
2022/07/12 07:34:47;;;;;;;0.00;0.00;;;;;;;;;;5069053;28;20033;-62
2022/07/12 07:37:13;;;;;;;0.00;0.00;;;;;;;;;;5069059;28;20025;-63
2022/07/12 07:39:39;;;;;;;0.00;0.00;;;;;;;;;;5068060;28;20047;-63
2022/07/12 07:42:04;;;;;;;0.17;0.17;;;;;;;;;;5069413;28;20025;-63
2022/07/12 07:44:30;;;;;;;0.00;0.00;;;;;;;;;;5068702;28;20258;-63
2022/07/12 07:46:55;;;;;;;0.00;0.00;;;;;;;;;;5070028;28;20081;-63
2022/07/12 07:49:21;;;;;;;0.05;0.05;;;;;;;;;;5068127;28;20016;-64
2022/07/12 07:51:46;;;;;;;0.00;0.00;;;;;;;;;;5068597;28;20072;-64
2022/07/12 07:54:11;;;;;;;0.00;0.00;;;;;;;;;;5068811;28;20278;-65
2022/07/12 07:56:36;;;;;;;0.00;0.00;;;;;;;;;;5069706;28;20301;-65
2022/07/12 07:59:02;;;;;;;0.00;0.00;;;;;;;;;;5067945;28;20267;-64
2022/07/12 08:01:52;;;;;;;0.00;0.00;;;;;;;;;;5068410;28;20054;-65
2022/07/12 08:04:13;;;;;;;0.00;0.00;;;;;;;;;;5067907;28;20040;-64
2022/07/12 08:06:38;;;;;;;0.00;0.00;;;;;;;;;;5067889;28;20107;-63
2022/07/12 08:09:04;;;;;;;0.00;0.00;;;;;;;;;;5069222;28;20128;-63
2022/07/12 08:11:30;;;;;;;0.00;0.00;;;;;;;;;;5049952;28;20020;-63
2022/07/12 08:13:55;;;;;;;0.00;0.00;;;;;;;;;;5067466;28;20025;-64
2022/07/12 08:16:20;;;;;;;0.00;0.00;;;;;;;;;;5067034;28;20020;-63
2022/07/12 08:18:45;;;;;;;0.00;0.00;;;;;;;;;;5068947;28;20016;-64
2022/07/12 08:21:11;;;;;;;0.00;0.00;;;;;;;;;;5067957;28;20086;-63
2022/07/12 08:23:36;;;;;;;0.00;0.00;;;;;;;;;;5067061;28;20324;-63
2022/07/12 08:26:01;;;;;;;0.27;0.27;;;;;;;;;;5067993;28;20025;-65
2022/07/12 08:28:26;;;;;;;0.00;0.00;;;;;;;;;;5068541;28;20281;-66
2022/07/12 08:30:51;;;;;;;0.00;0.00;;;;;;;;;;5072413;28;20591;-64
2022/07/12 08:33:17;;;;;;;0.00;0.00;;;;;;;;;;5067584;28;20056;-63
2022/07/12 08:35:43;;;;;;;0.00;0.00;;;;;;;;;;5066226;28;20325;-64
2022/07/12 08:38:09;;;;;;;0.30;0.30;;;;;;;;;;5067641;28;20013;-63
2022/07/12 08:40:35;;;;;;;0.00;0.00;;;;;;;;;;5065109;28;20461;-64
2022/07/12 08:43:00;;;;;;;0.00;0.00;;;;;;;;;;5049729;28;20063;-65
2022/07/12 08:45:25;;;;;;;0.00;0.00;;;;;;;;;;5066488;28;20270;-63
2022/07/12 08:47:50;;;;;;;0.00;0.00;;;;;;;;;;5048882;28;20119;-63
2022/07/12 08:50:19;;;;;;;0.00;0.00;;;;;;;;;;5065663;28;20043;-64
2022/07/12 08:52:46;;;;;;;0.00;0.00;;;;;;;;;;5066902;28;20267;-64
2022/07/12 08:55:22;;;;;;;0.00;0.00;;;;;;;;;;5063678;28;20055;-65
2022/07/12 08:57:48;;;;;;;0.00;0.00;;;;;;;;;;5065146;28;20052;-63
2022/07/12 09:00:13;;;;;;;0.10;0.10;;;;;;;;;;5064928;28;20055;-63
2022/07/12 09:02:43;;;;;;;0.05;0.05;;;;;;;;;;5063506;28;20017;-62
2022/07/12 09:05:08;;;;;;;0.00;0.00;;;;;;;;;;5065867;28;20026;-62
2022/07/12 09:07:37;;;;;;;0.00;0.00;;;;;;;;;;5064909;28;20025;-63
2022/07/12 09:10:03;;;;;;;0.00;0.00;;;;;;;;;;5067507;28;20123;-63
2022/07/12 09:12:28;;;;;;;0.00;0.00;;;;;;;;;;5065016;28;20106;-64
2022/07/12 09:14:54;;;;;;;0.00;0.00;;;;;;;;;;5066065;28;20021;-65
2022/07/12 09:17:22;;;;;;;0.00;0.00;;;;;;;;;;5065660;28;20036;-63
2022/07/12 09:19:57;;;;;;;0.00;0.00;;;;;;;;;;5065659;28;20024;-67
2022/07/12 09:22:22;;;;;;;0.00;0.00;;;;;;;;;;5064055;28;20023;-65
2022/07/12 09:24:47;;;;;;;0.00;0.00;;;;;;;;;;5066398;28;20369;-64
2022/07/12 09:27:13;;;;;;;0.00;0.00;;;;;;;;;;5064200;28;20528;-64
2022/07/12 09:29:48;;;;;;;0.00;0.00;;;;;;;;;;5066336;28;20273;-64
2022/07/12 09:37:42;;;;;;;0.00;0.00;;;;;;;;;;5065486;28;20036;-63
2022/07/12 09:40:08;;;;;;;0.00;0.00;;;;;;;;;;5068196;28;20028;-64
2022/07/12 09:42:34;;;;;;;0.05;0.05;;;;;;;;;;5065880;28;20385;-64
2022/07/12 09:45:00;;;;;;;0.00;0.00;;;;;;;;;;5065952;28;20028;-63
2022/07/12 09:47:26;;;;;;;0.00;0.00;;;;;;;;;;5067352;28;20040;-63
2022/07/12 09:49:52;;;;;;;0.52;0.38;;;;;;;;;;5064829;28;20021;-63
2022/07/12 09:52:25;;;;;;;0.25;0.25;;;;;;;;;;5047551;28;20131;-63
2022/07/12 09:54:52;;;;;;;0.00;0.00;;;;;;;;;;5065124;28;20063;-64
2022/07/12 09:57:20;;;;;;;0.00;0.00;;;;;;;;;;5066942;28;20040;-63
2022/07/12 09:59:46;;;;;;;0.38;0.38;;;;;;;;;;5065877;28;20035;-63
2022/07/12 10:02:15;;;;;;;0.00;0.00;;;;;;;;;;5066406;28;20021;-63
2022/07/12 10:04:41;;;;;;;0.00;0.00;;;;;;;;;;5065163;28;20074;-64
2022/07/12 10:07:06;;;;;;;0.00;0.00;;;;;;;;;;5063771;28;20106;-62
2022/07/12 10:09:32;;;;;;;0.00;0.00;;;;;;;;;;5063327;28;20025;-64
2022/07/12 10:11:58;;;;;;;0.00;0.00;;;;;;;;;;5066552;28;20035;-64
2022/07/12 10:14:24;;;;;;;0.00;0.00;;;;;;;;;;5069373;28;20107;-64
2022/07/12 10:16:52;;;;;;;0.00;0.00;;;;;;;;;;5067984;28;20034;-64
2022/07/12 10:19:20;;;;;;;0.00;0.00;;;;;;;;;;5069606;28;20020;-65
2022/07/12 10:21:48;;;;;;;0.05;0.05;;;;;;;;;;5065571;28;20381;-65
2022/07/12 10:24:39;;;;;;;0.00;0.00;;;;;;;;;;5070510;28;20107;-65
2022/07/12 10:27:13;;;;;;;0.10;0.10;;;;;;;;;;5064158;28;20041;-62
2022/07/12 10:29:43;;;;;;;0.20;0.20;;;;;;;;;;5074364;28;20024;-64
2022/07/12 10:32:24;;;;;;;0.10;0.10;;;;;;;;;;5068846;28;20033;-64
2022/07/12 10:34:59;;;;;;;0.00;0.00;;;;;;;;;;5068258;28;20533;-64
2022/07/12 10:37:24;;;;;;;0.00;0.00;;;;;;;;;;5069754;28;20020;-64
2022/07/12 10:40:08;;;;;;;0.15;0.15;;;;;;;;;;5068955;28;20612;-64
2022/07/12 10:42:33;;;;;;;0.00;0.00;;;;;;;;;;5067050;28;20028;-64
2022/07/12 10:45:10;;;;;;;0.00;0.00;;;;;;;;;;5051059;28;20032;-63
2022/07/12 10:47:52;;;;;;;0.00;0.00;;;;;;;;;;5068612;28;20024;-63
2022/07/12 10:50:17;;;;;;;0.10;0.10;;;;;;;;;;5065397;28;20431;-64
2022/07/12 10:52:43;;;;;;;0.00;0.00;;;;;;;;;;5066395;28;20028;-64
2022/07/12 10:55:11;;;;;;;0.00;0.00;;;;;;;;;;5069223;28;20107;-64
2022/07/12 10:57:43;;;;;;;0.00;0.00;;;;;;;;;;5067878;28;20029;-64
2022/07/12 11:00:09;;;;;;;1.02;1.02;;;;;;;;;;5068429;28;20259;-64
2022/07/12 11:02:34;;;;;;;0.00;0.00;;;;;;;;;;5066660;28;20028;-64
2022/07/12 11:05:00;;;;;;;0.00;0.00;;;;;;;;;;5072673;28;20479;-64
2022/07/12 11:07:25;;;;;;;0.00;0.00;;;;;;;;;;5068625;28;20036;-64
2022/07/12 11:09:53;;;;;;;0.08;0.08;;;;;;;;;;5071616;28;20016;-63
2022/07/12 11:12:19;;;;;;;0.88;0.52;;;;;;;;;;5073403;28;20492;-64
2022/07/12 11:14:50;;;;;;;0.00;0.00;;;;;;;;;;5055688;28;20038;-63
2022/07/12 11:17:19;;;;;;;0.00;0.00;;;;;;;;;;5068682;28;20048;-63
2022/07/12 11:19:45;;;;;;;0.00;0.00;;;;;;;;;;5067932;28;20029;-63
2022/07/12 11:22:11;;;;;;;0.00;0.00;;;;;;;;;;5067736;28;20032;-63
2022/07/12 11:24:36;;;;;;;0.00;0.00;;;;;;;;;;5067344;28;20069;-63
2022/07/12 11:27:01;;;;;;;0.20;0.20;;;;;;;;;;5073100;28;20029;-63
2022/07/12 11:29:27;;;;;;;0.00;0.00;;;;;;;;;;5068457;28;20024;-64
2022/07/12 11:32:06;;;;;;;0.30;0.30;;;;;;;;;;5067553;28;20029;-63
2022/07/12 11:34:32;;;;;;;0.05;0.05;;;;;;;;;;5067677;28;20016;-63
2022/07/12 11:36:58;;;;;;;0.00;0.00;;;;;;;;;;5067620;28;19927;-63
2022/07/12 11:39:29;;;;;;;0.00;0.00;;;;;;;;;;5068819;28;20029;-63
2022/07/12 11:41:56;;;;;;;0.00;0.00;;;;;;;;;;5067464;28;20487;-63
2022/07/12 11:44:21;;;;;;;0.00;0.00;;;;;;;;;;5068138;28;20366;-62
2022/07/12 11:46:50;;;;;;;0.00;0.00;;;;;;;;;;5066244;28;20037;-63
2022/07/12 11:49:15;;;;;;;0.00;0.00;;;;;;;;;;5067133;28;20366;-63
2022/07/12 11:51:40;;;;;;;0.30;0.10;;;;;;;;;;5076333;28;20021;-63
2022/07/12 11:54:06;;;;;;;0.00;0.00;;;;;;;;;;5067341;28;20051;-63
2022/07/12 11:56:31;;;;;;;0.00;0.00;;;;;;;;;;5067732;28;20049;-63
2022/07/12 11:58:59;;;;;;;0.00;0.00;;;;;;;;;;5067187;28;20732;-62
2022/07/12 12:01:25;;;;;;;0.00;0.00;;;;;;;;;;5068145;28;20035;-63
2022/07/12 12:03:51;;;;;;;0.00;0.00;;;;;;;;;;5067146;28;20012;-63
2022/07/12 12:06:17;;;;;;;0.00;0.00;;;;;;;;;;5070228;28;20030;-64
2022/07/12 12:08:43;;;;;;;0.00;0.00;;;;;;;;;;5067184;28;20033;-63
2022/07/12 12:11:09;;;;;;;0.32;0.32;;;;;;;;;;5075179;28;20021;-63
2022/07/12 12:13:34;;;;;;;0.00;0.00;;;;;;;;;;5067058;28;20035;-64
2022/07/12 12:16:00;;;;;;;0.00;0.00;;;;;;;;;;5063821;28;20088;-63
2022/07/12 12:18:28;;;;;;;0.00;0.00;;;;;;;;;;5063844;28;20028;-64
2022/07/12 12:20:57;;;;;;;0.00;0.00;;;;;;;;;;5065248;28;20493;-63
2022/07/12 12:23:23;;;;;;;;;;;;;;;;;;5064742;28;20416;-63
2022/07/12 12:25:49;;;;;;;0.00;0.00;;;;;;;;;;5064619;28;20355;-63
2022/07/12 12:28:14;;;;;;;0.00;0.00;;;;;;;;;;5064919;28;20056;-63
2022/07/12 12:30:52;;;;;;;3.20;3.10;;;;;;;;;;5064652;28;20112;-62
2022/07/12 12:33:37;;;;;;;0.00;0.00;;;;;;;;;;5064547;28;20025;-62
2022/07/12 12:36:16;;;;;;;0.00;0.00;;;;;;;;;;5063252;28;20041;-62
2022/07/12 12:38:42;;;;;;;0.00;0.00;;;;;;;;;;5065830;28;20017;-63
2022/07/12 12:41:07;;;;;;;0.00;0.00;;;;;;;;;;5067385;28;20020;-64
2022/07/12 12:43:33;;;;;;;0.00;0.00;;;;;;;;;;5066330;28;20028;-63
2022/07/12 12:45:58;;;;;;;0.00;0.00;;;;;;;;;;5067751;28;20118;-63
2022/07/12 12:48:27;;;;;;;0.00;0.00;;;;;;;;;;5066955;28;20353;-63
2022/07/12 12:51:12;;;;;;;0.00;0.00;;;;;;;;;;5065993;28;20046;-63
2022/07/12 12:53:41;;;;;;;0.00;0.00;;;;;;;;;;5067556;28;20043;-64
2022/07/12 12:56:10;;;;;;;0.00;0.00;;;;;;;;;;5066049;28;20444;-63
2022/07/12 12:58:36;;;;;;;1.20;0.05;;;;;;;;;;5068115;28;20086;-63
2022/07/12 13:01:02;;;;;;;0.00;0.00;;;;;;;;;;5065735;28;20037;-63
2022/07/12 13:03:27;;;;;;;0.00;0.00;;;;;;;;;;5067575;28;20024;-63
2022/07/12 13:05:52;;;;;;;0.00;0.00;;;;;;;;;;5066311;28;20505;-63
2022/07/12 13:08:18;;;;;;;0.00;0.00;;;;;;;;;;5067678;28;20262;-63
2022/07/12 13:10:44;;;;;;;0.00;0.00;;;;;;;;;;5066115;28;20575;-62
2022/07/12 13:13:09;;;;;;;0.00;0.00;;;;;;;;;;5065953;28;20059;-62
2022/07/12 13:15:35;;;;;;;0.00;0.00;;;;;;;;;;5066343;28;20020;-62
2022/07/12 13:18:03;;;;;;;0.00;0.00;;;;;;;;;;5065590;28;20027;-62
2022/07/12 13:20:29;;;;;;;0.10;0.10;;;;;;;;;;5067391;28;20020;-64
2022/07/12 13:22:55;;;;;;;0.00;0.00;;;;;;;;;;5066359;28;20031;-63
2022/07/12 13:25:20;;;;;;;0.00;0.00;;;;;;;;;;5067322;28;20412;-62
2022/07/12 13:27:46;;;;;;;0.00;0.00;;;;;;;;;;5066386;28;20090;-62
2022/07/12 13:30:12;;;;;;;0.00;0.00;;;;;;;;;;5066816;28;20029;-61
2022/07/12 13:32:38;;;;;;;0.20;0.10;;;;;;;;;;5065940;28;20070;-61
2022/07/12 13:35:04;;;;;;;0.00;0.00;;;;;;;;;;5066258;28;20032;-60
2022/07/12 13:37:29;;;;;;;0.00;0.00;;;;;;;;;;5065303;28;20063;-61
2022/07/12 13:42:45;;;;;;;0.00;0.00;;;;;;;;;;5064190;28;20047;-61
2022/07/12 13:45:21;;;;;;;0.00;0.00;;;;;;;;;;5067778;28;20146;-60
2022/07/12 13:47:46;;;;;;;0.00;0.00;;;;;;;;;;5064965;28;20039;-61
2022/07/12 13:50:13;;;;;;;0.00;0.00;;;;;;;;;;5067327;28;20025;-62
2022/07/12 13:52:40;;;;;;;0.00;0.00;;;;;;;;;;5064854;28;20027;-61
2022/07/12 13:55:06;;;;;;;0.10;0.00;;;;;;;;;;5065459;28;20063;-61
2022/07/12 13:57:33;;;;;;;0.00;0.00;;;;;;;;;;5066468;28;20049;-62
2022/07/12 13:59:58;;;;;;;0.00;0.00;;;;;;;;;;5066172;28;20036;-61
2022/07/12 14:02:24;;;;;;;0.00;0.00;;;;;;;;;;5065452;28;20021;-62
2022/07/12 14:04:49;;;;;;;0.00;0.00;;;;;;;;;;5066078;28;20017;-61
2022/07/12 14:07:15;;;;;;;0.00;0.00;;;;;;;;;;5065673;28;20040;-62
2022/07/12 14:09:40;;;;;;;0.10;0.10;;;;;;;;;;5065777;28;20082;-62
2022/07/12 14:12:08;;;;;;;0.20;0.20;;;;;;;;;;5064292;28;20020;-61
2022/07/12 14:17:17;;;;;;;1.67;1.65;;;;;;;;;;5067014;28;20086;-62
2022/07/12 14:19:43;;;;;;;0.10;0.10;;;;;;;;;;5067420;28;20029;-61
2022/07/12 14:22:08;;;;;;;0.00;0.00;;;;;;;;;;5079934;28;20020;-60
2022/07/12 14:24:34;;;;;;;0.10;0.10;;;;;;;;;;5066082;28;20012;-61
2022/07/12 14:26:59;;;;;;;0.00;0.00;;;;;;;;;;5067080;28;20039;-60
2022/07/12 14:29:24;;;;;;;0.00;0.00;;;;;;;;;;5065005;28;20361;-60
2022/07/12 14:31:50;;;;;;;0.10;0.10;;;;;;;;;;5066573;28;20027;-61
2022/07/12 14:34:15;;;;;;;0.00;0.00;;;;;;;;;;5064800;28;20035;-60
2022/07/12 14:36:40;;;;;;;0.00;0.00;;;;;;;;;;5066155;28;20093;-62
2022/07/12 14:39:05;;;;;;;0.00;0.00;;;;;;;;;;5064031;28;20029;-61
2022/07/12 14:41:31;;;;;;;0.05;0.05;;;;;;;;;;5065854;28;20024;-61
2022/07/12 14:43:56;;;;;;;0.00;0.00;;;;;;;;;;5065309;28;20062;-61
2022/07/12 14:46:21;;;;;;;0.00;0.00;;;;;;;;;;5066294;28;20027;-61
2022/07/12 14:48:46;;;;;;;0.00;0.00;;;;;;;;;;5065499;28;20469;-61
2022/07/12 14:51:12;;;;;;;0.00;0.00;;;;;;;;;;5066103;28;20040;-60
2022/07/12 14:53:37;;;;;;;0.45;0.40;;;;;;;;;;5066280;28;20039;-62